sensor_id;sensor_type;location;lat;lon;timestamp;P1;durP1;ratioP1;P2;durP2;ratioP2
12308;SDS011;6217;48.150;17.142;2023-02-28T00:03:57;6.25;;;2.47;;
12308;SDS011;6217;48.150;17.142;2023-02-28T00:08:03;4.90;;;2.70;;
12308;SDS011;6217;48.150;17.142;2023-02-28T00:12:09;4.60;;;2.70;;
12308;SDS011;6217;48.150;17.142;2023-02-28T00:16:17;6.43;;;2.80;;
12308;SDS011;6217;48.150;17.142;2023-02-28T00:20:25;4.40;;;2.70;;
12308;SDS011;6217;48.150;17.142;2023-02-28T00:24:31;4.47;;;2.88;;
12308;SDS011;6217;48.150;17.142;2023-02-28T00:28:37;5.45;;;2.90;;
12308;SDS011;6217;48.150;17.142;2023-02-28T00:32:43;5.57;;;3.30;;
12308;SDS011;6217;48.150;17.142;2023-02-28T00:36:49;6.97;;;4.05;;
12308;SDS011;6217;48.150;17.142;2023-02-28T00:40:55;8.38;;;3.20;;
12308;SDS011;6217;48.150;17.142;2023-02-28T00:45:02;6.88;;;3.40;;
12308;SDS011;6217;48.150;17.142;2023-02-28T00:49:09;7.85;;;3.22;;
12308;SDS011;6217;48.150;17.142;2023-02-28T00:53:15;9.43;;;4.53;;
12308;SDS011;6217;48.150;17.142;2023-02-28T00:57:21;7.47;;;4.63;;
12308;SDS011;6217;48.150;17.142;2023-02-28T01:01:27;8.70;;;4.88;;
12308;SDS011;6217;48.150;17.142;2023-02-28T01:05:33;8.45;;;4.30;;
12308;SDS011;6217;48.150;17.142;2023-02-28T01:09:39;7.63;;;4.82;;
12308;SDS011;6217;48.150;17.142;2023-02-28T01:13:46;5.72;;;4.20;;
12308;SDS011;6217;48.150;17.142;2023-02-28T01:17:52;7.10;;;4.07;;
12308;SDS011;6217;48.150;17.142;2023-02-28T01:22:02;8.85;;;3.63;;
12308;SDS011;6217;48.150;17.142;2023-02-28T01:26:11;8.63;;;4.32;;
12308;SDS011;6217;48.150;17.142;2023-02-28T01:30:20;8.43;;;5.35;;
12308;SDS011;6217;48.150;17.142;2023-02-28T01:34:26;8.55;;;4.28;;
12308;SDS011;6217;48.150;17.142;2023-02-28T01:38:32;8.52;;;5.57;;
12308;SDS011;6217;48.150;17.142;2023-02-28T01:42:38;8.20;;;4.72;;
12308;SDS011;6217;48.150;17.142;2023-02-28T01:46:45;8.32;;;5.38;;
12308;SDS011;6217;48.150;17.142;2023-02-28T01:50:50;12.48;;;5.78;;
12308;SDS011;6217;48.150;17.142;2023-02-28T01:54:57;10.52;;;4.50;;
12308;SDS011;6217;48.150;17.142;2023-02-28T01:59:05;12.52;;;5.43;;
12308;SDS011;6217;48.150;17.142;2023-02-28T02:03:13;8.02;;;4.85;;
12308;SDS011;6217;48.150;17.142;2023-02-28T02:07:24;11.13;;;5.88;;
12308;SDS011;6217;48.150;17.142;2023-02-28T02:11:31;10.32;;;6.43;;
12308;SDS011;6217;48.150;17.142;2023-02-28T02:47:14;10.60;;;6.40;;
12308;SDS011;6217;48.150;17.142;2023-02-28T02:51:24;11.25;;;7.75;;
12308;SDS011;6217;48.150;17.142;2023-02-28T02:55:32;12.35;;;7.07;;
12308;SDS011;6217;48.150;17.142;2023-02-28T02:59:44;8.50;;;6.15;;
12308;SDS011;6217;48.150;17.142;2023-02-28T03:03:50;14.23;;;7.75;;
12308;SDS011;6217;48.150;17.142;2023-02-28T03:07:57;10.35;;;5.53;;
12308;SDS011;6217;48.150;17.142;2023-02-28T03:12:03;12.57;;;6.72;;
12308;SDS011;6217;48.150;17.142;2023-02-28T03:21:17;10.63;;;6.97;;
12308;SDS011;6217;48.150;17.142;2023-02-28T03:30:10;13.93;;;7.35;;
12308;SDS011;6217;48.150;17.142;2023-02-28T03:35:07;11.63;;;6.65;;
12308;SDS011;6217;48.150;17.142;2023-02-28T03:39:17;11.38;;;6.10;;
12308;SDS011;6217;48.150;17.142;2023-02-28T03:43:40;12.07;;;7.40;;
12308;SDS011;6217;48.150;17.142;2023-02-28T03:47:55;9.85;;;6.63;;
12308;SDS011;6217;48.150;17.142;2023-02-28T03:52:21;12.13;;;6.50;;
12308;SDS011;6217;48.150;17.142;2023-02-28T03:56:39;13.15;;;7.28;;
12308;SDS011;6217;48.150;17.142;2023-02-28T04:00:55;19.52;;;8.07;;
12308;SDS011;6217;48.150;17.142;2023-02-28T04:05:13;11.05;;;6.30;;
12308;SDS011;6217;48.150;17.142;2023-02-28T04:09:18;12.95;;;7.22;;
12308;SDS011;6217;48.150;17.142;2023-02-28T04:13:24;13.02;;;7.60;;
12308;SDS011;6217;48.150;17.142;2023-02-28T04:17:30;11.48;;;7.30;;
12308;SDS011;6217;48.150;17.142;2023-02-28T04:21:38;14.25;;;7.82;;
12308;SDS011;6217;48.150;17.142;2023-02-28T04:25:47;17.63;;;7.82;;
12308;SDS011;6217;48.150;17.142;2023-02-28T04:29:53;14.77;;;8.07;;
12308;SDS011;6217;48.150;17.142;2023-02-28T04:33:59;12.32;;;6.90;;
12308;SDS011;6217;48.150;17.142;2023-02-28T04:38:05;13.20;;;7.35;;
12308;SDS011;6217;48.150;17.142;2023-02-28T04:42:12;13.10;;;6.90;;
12308;SDS011;6217;48.150;17.142;2023-02-28T04:46:21;15.23;;;7.45;;
12308;SDS011;6217;48.150;17.142;2023-02-28T04:50:27;12.05;;;7.00;;
12308;SDS011;6217;48.150;17.142;2023-02-28T04:54:33;11.07;;;5.60;;
12308;SDS011;6217;48.150;17.142;2023-02-28T04:58:40;13.57;;;6.95;;
12308;SDS011;6217;48.150;17.142;2023-02-28T05:02:46;16.55;;;8.07;;
12308;SDS011;6217;48.150;17.142;2023-02-28T05:06:52;10.77;;;6.55;;
12308;SDS011;6217;48.150;17.142;2023-02-28T05:10:57;19.17;;;7.93;;
12308;SDS011;6217;48.150;17.142;2023-02-28T05:15:05;14.77;;;8.73;;
12308;SDS011;6217;48.150;17.142;2023-02-28T05:19:13;13.55;;;7.47;;
12308;SDS011;6217;48.150;17.142;2023-02-28T05:23:19;13.05;;;8.88;;
12308;SDS011;6217;48.150;17.142;2023-02-28T05:27:26;13.23;;;7.65;;
12308;SDS011;6217;48.150;17.142;2023-02-28T05:31:33;13.35;;;6.50;;
12308;SDS011;6217;48.150;17.142;2023-02-28T05:35:39;12.98;;;6.53;;
12308;SDS011;6217;48.150;17.142;2023-02-28T05:39:47;8.60;;;6.15;;
12308;SDS011;6217;48.150;17.142;2023-02-28T05:43:53;13.30;;;6.82;;
12308;SDS011;6217;48.150;17.142;2023-02-28T05:47:59;13.00;;;6.20;;
12308;SDS011;6217;48.150;17.142;2023-02-28T05:52:05;10.80;;;7.35;;
12308;SDS011;6217;48.150;17.142;2023-02-28T05:56:11;11.40;;;6.13;;
12308;SDS011;6217;48.150;17.142;2023-02-28T06:00:17;13.85;;;7.00;;
12308;SDS011;6217;48.150;17.142;2023-02-28T06:04:23;12.70;;;7.38;;
12308;SDS011;6217;48.150;17.142;2023-02-28T06:08:29;15.88;;;7.05;;
12308;SDS011;6217;48.150;17.142;2023-02-28T06:12:35;9.30;;;5.32;;
12308;SDS011;6217;48.150;17.142;2023-02-28T06:16:42;9.85;;;6.25;;
12308;SDS011;6217;48.150;17.142;2023-02-28T06:20:54;11.68;;;6.82;;
12308;SDS011;6217;48.150;17.142;2023-02-28T06:25:01;11.32;;;5.15;;
12308;SDS011;6217;48.150;17.142;2023-02-28T06:29:08;11.20;;;6.95;;
12308;SDS011;6217;48.150;17.142;2023-02-28T06:33:14;14.43;;;6.75;;
12308;SDS011;6217;48.150;17.142;2023-02-28T06:37:19;15.52;;;6.30;;
12308;SDS011;6217;48.150;17.142;2023-02-28T06:41:26;13.70;;;7.28;;
12308;SDS011;6217;48.150;17.142;2023-02-28T06:45:32;9.13;;;5.68;;
12308;SDS011;6217;48.150;17.142;2023-02-28T06:49:38;10.95;;;6.30;;
12308;SDS011;6217;48.150;17.142;2023-02-28T06:53:45;15.18;;;6.05;;
12308;SDS011;6217;48.150;17.142;2023-02-28T06:57:51;13.40;;;6.93;;
12308;SDS011;6217;48.150;17.142;2023-02-28T07:01:57;9.23;;;5.88;;
12308;SDS011;6217;48.150;17.142;2023-02-28T07:06:04;15.07;;;7.15;;
12308;SDS011;6217;48.150;17.142;2023-02-28T07:10:11;9.70;;;5.88;;
12308;SDS011;6217;48.150;17.142;2023-02-28T07:14:18;10.73;;;6.90;;
12308;SDS011;6217;48.150;17.142;2023-02-28T07:18:24;8.45;;;7.07;;
12308;SDS011;6217;48.150;17.142;2023-02-28T07:22:30;10.80;;;6.60;;
12308;SDS011;6217;48.150;17.142;2023-02-28T07:26:36;15.23;;;7.45;;
12308;SDS011;6217;48.150;17.142;2023-02-28T07:30:42;10.63;;;7.68;;
12308;SDS011;6217;48.150;17.142;2023-02-28T07:34:48;12.60;;;7.57;;
12308;SDS011;6217;48.150;17.142;2023-02-28T07:38:54;11.80;;;7.03;;
12308;SDS011;6217;48.150;17.142;2023-02-28T07:43:00;13.90;;;9.18;;
12308;SDS011;6217;48.150;17.142;2023-02-28T07:47:07;10.52;;;7.70;;
12308;SDS011;6217;48.150;17.142;2023-02-28T07:51:14;15.20;;;8.95;;
12308;SDS011;6217;48.150;17.142;2023-02-28T07:55:20;13.55;;;8.27;;
12308;SDS011;6217;48.150;17.142;2023-02-28T07:59:26;15.57;;;9.05;;
12308;SDS011;6217;48.150;17.142;2023-02-28T08:03:32;13.15;;;8.25;;
12308;SDS011;6217;48.150;17.142;2023-02-28T08:07:38;14.13;;;8.23;;
12308;SDS011;6217;48.150;17.142;2023-02-28T08:11:44;11.32;;;8.50;;
12308;SDS011;6217;48.150;17.142;2023-02-28T08:15:50;12.43;;;7.80;;
12308;SDS011;6217;48.150;17.142;2023-02-28T08:19:56;11.80;;;7.35;;
12308;SDS011;6217;48.150;17.142;2023-02-28T08:24:02;10.65;;;7.75;;
12308;SDS011;6217;48.150;17.142;2023-02-28T08:28:08;13.30;;;8.52;;
12308;SDS011;6217;48.150;17.142;2023-02-28T08:32:14;11.25;;;7.70;;
12308;SDS011;6217;48.150;17.142;2023-02-28T08:36:21;9.48;;;6.95;;
12308;SDS011;6217;48.150;17.142;2023-02-28T08:40:27;12.43;;;7.85;;
12308;SDS011;6217;48.150;17.142;2023-02-28T08:44:33;16.52;;;8.45;;
12308;SDS011;6217;48.150;17.142;2023-02-28T08:48:39;13.20;;;8.07;;
12308;SDS011;6217;48.150;17.142;2023-02-28T08:52:45;10.02;;;7.60;;
12308;SDS011;6217;48.150;17.142;2023-02-28T08:56:52;14.25;;;7.72;;
12308;SDS011;6217;48.150;17.142;2023-02-28T09:00:58;10.02;;;8.50;;
12308;SDS011;6217;48.150;17.142;2023-02-28T09:05:04;12.68;;;8.45;;
12308;SDS011;6217;48.150;17.142;2023-02-28T09:09:10;13.30;;;8.75;;
12308;SDS011;6217;48.150;17.142;2023-02-28T09:13:16;9.57;;;6.88;;
12308;SDS011;6217;48.150;17.142;2023-02-28T09:17:23;17.10;;;9.50;;
12308;SDS011;6217;48.150;17.142;2023-02-28T09:21:29;11.90;;;8.38;;
12308;SDS011;6217;48.150;17.142;2023-02-28T09:25:35;13.18;;;9.48;;
12308;SDS011;6217;48.150;17.142;2023-02-28T09:29:42;9.48;;;7.97;;
12308;SDS011;6217;48.150;17.142;2023-02-28T09:33:48;10.50;;;9.38;;
12308;SDS011;6217;48.150;17.142;2023-02-28T09:37:56;11.32;;;8.93;;
12308;SDS011;6217;48.150;17.142;2023-02-28T09:42:03;12.60;;;8.68;;
12308;SDS011;6217;48.150;17.142;2023-02-28T09:50:52;12.50;;;8.60;;
12308;SDS011;6217;48.150;17.142;2023-02-28T10:09:08;9.32;;;7.65;;
12308;SDS011;6217;48.150;17.142;2023-02-28T10:13:27;11.75;;;7.45;;
12308;SDS011;6217;48.150;17.142;2023-02-28T10:17:41;10.25;;;8.05;;
12308;SDS011;6217;48.150;17.142;2023-02-28T10:26:19;12.98;;;7.13;;
12308;SDS011;6217;48.150;17.142;2023-02-28T10:30:25;13.63;;;6.75;;
12308;SDS011;6217;48.150;17.142;2023-02-28T10:34:31;9.80;;;5.72;;
12308;SDS011;6217;48.150;17.142;2023-02-28T10:38:38;9.75;;;6.32;;
12308;SDS011;6217;48.150;17.142;2023-02-28T10:47:19;12.40;;;7.50;;
12308;SDS011;6217;48.150;17.142;2023-02-28T10:51:25;7.65;;;6.00;;
12308;SDS011;6217;48.150;17.142;2023-02-28T10:55:40;10.88;;;6.95;;
12308;SDS011;6217;48.150;17.142;2023-02-28T10:59:46;10.25;;;6.18;;
12308;SDS011;6217;48.150;17.142;2023-02-28T11:03:57;11.63;;;6.82;;
12308;SDS011;6217;48.150;17.142;2023-02-28T11:08:12;8.85;;;6.60;;
12308;SDS011;6217;48.150;17.142;2023-02-28T11:12:37;12.63;;;7.97;;
12308;SDS011;6217;48.150;17.142;2023-02-28T11:16:46;9.70;;;7.55;;
12308;SDS011;6217;48.150;17.142;2023-02-28T11:20:54;8.75;;;7.05;;
12308;SDS011;6217;48.150;17.142;2023-02-28T11:25:07;9.55;;;7.40;;
12308;SDS011;6217;48.150;17.142;2023-02-28T11:29:28;12.50;;;6.00;;
12308;SDS011;6217;48.150;17.142;2023-02-28T11:37:56;11.05;;;6.20;;
12308;SDS011;6217;48.150;17.142;2023-02-28T11:42:09;11.65;;;7.22;;
12308;SDS011;6217;48.150;17.142;2023-02-28T11:46:41;12.18;;;6.88;;
12308;SDS011;6217;48.150;17.142;2023-02-28T11:51:14;8.57;;;6.13;;
12308;SDS011;6217;48.150;17.142;2023-02-28T11:55:38;7.85;;;5.45;;
12308;SDS011;6217;48.150;17.142;2023-02-28T12:04:42;11.63;;;6.97;;
12308;SDS011;6217;48.150;17.142;2023-02-28T12:09:18;12.70;;;5.88;;
12308;SDS011;6217;48.150;17.142;2023-02-28T12:27:44;7.20;;;5.88;;
12308;SDS011;6217;48.150;17.142;2023-02-28T12:31:55;8.52;;;6.70;;
12308;SDS011;6217;48.150;17.142;2023-02-28T12:36:19;7.18;;;5.38;;
12308;SDS011;6217;48.150;17.142;2023-02-28T12:40:38;9.20;;;6.03;;
12308;SDS011;6217;48.150;17.142;2023-02-28T12:45:00;7.68;;;5.70;;
12308;SDS011;6217;48.150;17.142;2023-02-28T12:49:16;8.30;;;5.43;;
12308;SDS011;6217;48.150;17.142;2023-02-28T12:57:58;8.65;;;5.85;;
12308;SDS011;6217;48.150;17.142;2023-02-28T13:02:32;13.23;;;7.13;;
12308;SDS011;6217;48.150;17.142;2023-02-28T13:11:41;11.70;;;6.47;;
12308;SDS011;6217;48.150;17.142;2023-02-28T13:16:00;9.20;;;5.80;;
12308;SDS011;6217;48.150;17.142;2023-02-28T13:20:16;10.23;;;4.90;;
12308;SDS011;6217;48.150;17.142;2023-02-28T13:33:17;9.63;;;5.45;;
12308;SDS011;6217;48.150;17.142;2023-02-28T13:37:42;10.45;;;5.95;;
12308;SDS011;6217;48.150;17.142;2023-02-28T13:41:49;9.77;;;5.32;;
12308;SDS011;6217;48.150;17.142;2023-02-28T13:46:04;10.65;;;5.28;;
12308;SDS011;6217;48.150;17.142;2023-02-28T13:50:21;10.63;;;5.97;;
12308;SDS011;6217;48.150;17.142;2023-02-28T13:54:40;9.25;;;5.38;;
12308;SDS011;6217;48.150;17.142;2023-02-28T13:59:28;7.72;;;5.65;;
12308;SDS011;6217;48.150;17.142;2023-02-28T14:04:15;11.45;;;6.35;;
12308;SDS011;6217;48.150;17.142;2023-02-28T14:08:55;10.65;;;6.65;;
12308;SDS011;6217;48.150;17.142;2023-02-28T14:13:54;10.93;;;6.35;;
12308;SDS011;6217;48.150;17.142;2023-02-28T14:17:52;9.75;;;4.65;;
12308;SDS011;6217;48.150;17.142;2023-02-28T14:23:02;10.77;;;6.30;;
12308;SDS011;6217;48.150;17.142;2023-02-28T14:36:10;6.90;;;5.45;;
12308;SDS011;6217;48.150;17.142;2023-02-28T14:40:24;6.38;;;5.22;;
12308;SDS011;6217;48.150;17.142;2023-02-28T14:44:36;7.53;;;4.63;;
12308;SDS011;6217;48.150;17.142;2023-02-28T14:48:44;9.80;;;5.30;;
12308;SDS011;6217;48.150;17.142;2023-02-28T14:52:52;8.13;;;4.88;;
12308;SDS011;6217;48.150;17.142;2023-02-28T14:57:00;7.82;;;5.18;;
12308;SDS011;6217;48.150;17.142;2023-02-28T15:01:10;5.80;;;4.38;;
12308;SDS011;6217;48.150;17.142;2023-02-28T15:09:34;6.97;;;4.78;;
12308;SDS011;6217;48.150;17.142;2023-02-28T15:17:55;15.27;;;6.53;;
12308;SDS011;6217;48.150;17.142;2023-02-28T15:22:04;8.50;;;6.15;;
12308;SDS011;6217;48.150;17.142;2023-02-28T15:26:18;10.98;;;7.25;;
12308;SDS011;6217;48.150;17.142;2023-02-28T15:30:28;9.15;;;6.15;;
12308;SDS011;6217;48.150;17.142;2023-02-28T15:34:40;8.68;;;7.03;;
12308;SDS011;6217;48.150;17.142;2023-02-28T15:43:11;10.25;;;6.13;;
12308;SDS011;6217;48.150;17.142;2023-02-28T15:47:24;9.60;;;6.05;;
12308;SDS011;6217;48.150;17.142;2023-02-28T15:51:35;9.45;;;5.90;;
12308;SDS011;6217;48.150;17.142;2023-02-28T15:55:42;6.90;;;5.45;;
12308;SDS011;6217;48.150;17.142;2023-02-28T15:59:51;12.10;;;6.72;;
12308;SDS011;6217;48.150;17.142;2023-02-28T16:04:18;8.45;;;5.95;;
12308;SDS011;6217;48.150;17.142;2023-02-28T16:08:25;7.70;;;5.65;;
12308;SDS011;6217;48.150;17.142;2023-02-28T16:12:31;12.88;;;5.90;;
12308;SDS011;6217;48.150;17.142;2023-02-28T16:16:42;9.02;;;5.95;;
12308;SDS011;6217;48.150;17.142;2023-02-28T16:20:51;7.55;;;5.70;;
12308;SDS011;6217;48.150;17.142;2023-02-28T16:24:57;10.07;;;6.40;;
12308;SDS011;6217;48.150;17.142;2023-02-28T16:29:03;10.73;;;6.13;;
12308;SDS011;6217;48.150;17.142;2023-02-28T16:33:09;8.23;;;6.45;;
12308;SDS011;6217;48.150;17.142;2023-02-28T16:37:16;9.15;;;4.85;;
12308;SDS011;6217;48.150;17.142;2023-02-28T16:41:25;7.35;;;5.13;;
12308;SDS011;6217;48.150;17.142;2023-02-28T16:45:33;9.90;;;6.15;;
12308;SDS011;6217;48.150;17.142;2023-02-28T16:49:39;7.82;;;5.63;;
12308;SDS011;6217;48.150;17.142;2023-02-28T16:53:47;7.22;;;5.72;;
12308;SDS011;6217;48.150;17.142;2023-02-28T16:57:54;10.30;;;6.03;;
12308;SDS011;6217;48.150;17.142;2023-02-28T17:02:12;9.32;;;4.55;;
12308;SDS011;6217;48.150;17.142;2023-02-28T17:06:21;6.43;;;4.70;;
12308;SDS011;6217;48.150;17.142;2023-02-28T17:10:32;8.27;;;5.82;;
12308;SDS011;6217;48.150;17.142;2023-02-28T17:14:38;10.68;;;5.65;;
12308;SDS011;6217;48.150;17.142;2023-02-28T17:18:44;10.23;;;6.25;;
12308;SDS011;6217;48.150;17.142;2023-02-28T17:22:50;10.60;;;5.05;;
12308;SDS011;6217;48.150;17.142;2023-02-28T17:26:57;6.93;;;5.55;;
12308;SDS011;6217;48.150;17.142;2023-02-28T17:31:03;10.82;;;4.82;;
12308;SDS011;6217;48.150;17.142;2023-02-28T17:35:09;10.00;;;4.97;;
12308;SDS011;6217;48.150;17.142;2023-02-28T17:39:17;11.25;;;5.53;;
12308;SDS011;6217;48.150;17.142;2023-02-28T17:43:30;12.10;;;4.78;;
12308;SDS011;6217;48.150;17.142;2023-02-28T17:47:36;11.15;;;5.95;;
12308;SDS011;6217;48.150;17.142;2023-02-28T17:51:43;8.35;;;4.97;;
12308;SDS011;6217;48.150;17.142;2023-02-28T17:55:50;16.77;;;5.65;;
12308;SDS011;6217;48.150;17.142;2023-02-28T17:59:56;9.52;;;6.22;;
12308;SDS011;6217;48.150;17.142;2023-02-28T18:04:02;9.40;;;7.13;;
12308;SDS011;6217;48.150;17.142;2023-02-28T18:08:11;13.27;;;7.93;;
12308;SDS011;6217;48.150;17.142;2023-02-28T18:12:51;11.98;;;7.18;;
12308;SDS011;6217;48.150;17.142;2023-02-28T18:17:42;9.43;;;6.28;;
12308;SDS011;6217;48.150;17.142;2023-02-28T18:21:49;10.18;;;6.85;;
12308;SDS011;6217;48.150;17.142;2023-02-28T18:25:57;12.20;;;7.63;;
12308;SDS011;6217;48.150;17.142;2023-02-28T18:30:03;11.55;;;6.85;;
12308;SDS011;6217;48.150;17.142;2023-02-28T18:34:09;14.88;;;7.53;;
12308;SDS011;6217;48.150;17.142;2023-02-28T18:38:16;19.08;;;7.93;;
12308;SDS011;6217;48.150;17.142;2023-02-28T18:42:27;14.57;;;6.97;;
12308;SDS011;6217;48.150;17.142;2023-02-28T18:46:34;17.83;;;7.70;;
12308;SDS011;6217;48.150;17.142;2023-02-28T18:50:40;18.42;;;7.70;;
12308;SDS011;6217;48.150;17.142;2023-02-28T18:54:46;13.63;;;7.95;;
12308;SDS011;6217;48.150;17.142;2023-02-28T18:58:52;12.88;;;8.93;;
12308;SDS011;6217;48.150;17.142;2023-02-28T19:02:58;12.88;;;8.20;;
12308;SDS011;6217;48.150;17.142;2023-02-28T19:07:04;16.55;;;7.15;;
12308;SDS011;6217;48.150;17.142;2023-02-28T19:11:16;12.25;;;8.02;;
12308;SDS011;6217;48.150;17.142;2023-02-28T19:15:23;13.55;;;8.27;;
12308;SDS011;6217;48.150;17.142;2023-02-28T19:19:29;19.23;;;9.50;;
12308;SDS011;6217;48.150;17.142;2023-02-28T19:23:35;25.48;;;12.65;;
12308;SDS011;6217;48.150;17.142;2023-02-28T19:27:42;23.65;;;12.63;;
12308;SDS011;6217;48.150;17.142;2023-02-28T19:31:48;18.23;;;10.15;;
12308;SDS011;6217;48.150;17.142;2023-02-28T19:35:54;18.60;;;9.40;;
12308;SDS011;6217;48.150;17.142;2023-02-28T19:40:05;17.00;;;8.25;;
12308;SDS011;6217;48.150;17.142;2023-02-28T19:44:13;19.77;;;11.75;;
12308;SDS011;6217;48.150;17.142;2023-02-28T19:48:19;20.02;;;10.48;;
12308;SDS011;6217;48.150;17.142;2023-02-28T19:52:29;32.40;;;16.95;;
12308;SDS011;6217;48.150;17.142;2023-02-28T19:56:35;50.67;;;24.98;;
12308;SDS011;6217;48.150;17.142;2023-02-28T20:00:41;54.28;;;25.73;;
12308;SDS011;6217;48.150;17.142;2023-02-28T20:04:47;49.63;;;24.80;;
12308;SDS011;6217;48.150;17.142;2023-02-28T20:08:54;43.42;;;23.35;;
12308;SDS011;6217;48.150;17.142;2023-02-28T20:13:00;40.85;;;22.67;;
12308;SDS011;6217;48.150;17.142;2023-02-28T20:17:06;50.15;;;24.83;;
12308;SDS011;6217;48.150;17.142;2023-02-28T20:21:12;47.22;;;22.48;;
12308;SDS011;6217;48.150;17.142;2023-02-28T20:25:18;36.25;;;20.40;;
12308;SDS011;6217;48.150;17.142;2023-02-28T20:29:25;31.55;;;18.27;;
12308;SDS011;6217;48.150;17.142;2023-02-28T20:33:30;41.17;;;22.63;;
12308;SDS011;6217;48.150;17.142;2023-02-28T20:37:37;35.70;;;16.63;;
12308;SDS011;6217;48.150;17.142;2023-02-28T20:41:43;24.33;;;13.60;;
12308;SDS011;6217;48.150;17.142;2023-02-28T20:45:50;26.27;;;14.48;;
12308;SDS011;6217;48.150;17.142;2023-02-28T20:50:02;31.70;;;14.85;;
12308;SDS011;6217;48.150;17.142;2023-02-28T20:54:08;26.38;;;12.93;;
12308;SDS011;6217;48.150;17.142;2023-02-28T20:58:18;22.38;;;11.75;;
12308;SDS011;6217;48.150;17.142;2023-02-28T21:02:23;26.13;;;14.07;;
12308;SDS011;6217;48.150;17.142;2023-02-28T21:06:31;22.55;;;13.48;;
12308;SDS011;6217;48.150;17.142;2023-02-28T21:10:40;15.27;;;10.95;;
12308;SDS011;6217;48.150;17.142;2023-02-28T21:14:46;23.80;;;12.90;;
12308;SDS011;6217;48.150;17.142;2023-02-28T21:18:52;25.33;;;12.82;;
12308;SDS011;6217;48.150;17.142;2023-02-28T21:22:59;26.50;;;11.95;;
12308;SDS011;6217;48.150;17.142;2023-02-28T21:27:05;22.17;;;10.73;;
12308;SDS011;6217;48.150;17.142;2023-02-28T21:31:12;23.67;;;13.85;;
12308;SDS011;6217;48.150;17.142;2023-02-28T21:35:20;26.77;;;11.50;;
12308;SDS011;6217;48.150;17.142;2023-02-28T21:39:26;23.73;;;14.65;;
12308;SDS011;6217;48.150;17.142;2023-02-28T21:43:34;31.50;;;13.25;;
12308;SDS011;6217;48.150;17.142;2023-02-28T21:47:40;33.47;;;14.80;;
12308;SDS011;6217;48.150;17.142;2023-02-28T21:51:46;21.67;;;13.70;;
12308;SDS011;6217;48.150;17.142;2023-02-28T21:55:52;28.48;;;14.82;;
12308;SDS011;6217;48.150;17.142;2023-02-28T21:59:58;26.77;;;15.13;;
12308;SDS011;6217;48.150;17.142;2023-02-28T22:04:05;26.60;;;16.27;;
12308;SDS011;6217;48.150;17.142;2023-02-28T22:08:14;27.60;;;14.23;;
12308;SDS011;6217;48.150;17.142;2023-02-28T22:12:19;24.55;;;12.82;;
12308;SDS011;6217;48.150;17.142;2023-02-28T22:16:27;24.20;;;12.85;;
12308;SDS011;6217;48.150;17.142;2023-02-28T22:20:35;27.33;;;13.25;;
12308;SDS011;6217;48.150;17.142;2023-02-28T22:24:41;22.17;;;12.38;;
12308;SDS011;6217;48.150;17.142;2023-02-28T22:28:48;22.52;;;12.43;;
12308;SDS011;6217;48.150;17.142;2023-02-28T22:32:54;19.27;;;11.52;;
12308;SDS011;6217;48.150;17.142;2023-02-28T22:37:00;22.70;;;11.57;;
12308;SDS011;6217;48.150;17.142;2023-02-28T22:41:06;24.20;;;11.60;;
12308;SDS011;6217;48.150;17.142;2023-02-28T22:45:13;19.85;;;13.32;;
12308;SDS011;6217;48.150;17.142;2023-02-28T22:49:19;22.00;;;13.00;;
12308;SDS011;6217;48.150;17.142;2023-02-28T22:53:25;26.52;;;11.27;;
12308;SDS011;6217;48.150;17.142;2023-02-28T22:57:30;22.50;;;11.60;;
12308;SDS011;6217;48.150;17.142;2023-02-28T23:01:36;18.58;;;10.50;;
12308;SDS011;6217;48.150;17.142;2023-02-28T23:05:44;22.95;;;11.90;;
12308;SDS011;6217;48.150;17.142;2023-02-28T23:09:50;27.40;;;11.90;;
12308;SDS011;6217;48.150;17.142;2023-02-28T23:13:58;18.77;;;11.07;;
12308;SDS011;6217;48.150;17.142;2023-02-28T23:18:05;18.65;;;9.95;;
12308;SDS011;6217;48.150;17.142;2023-02-28T23:22:11;18.23;;;9.55;;
12308;SDS011;6217;48.150;17.142;2023-02-28T23:26:17;30.35;;;10.88;;
12308;SDS011;6217;48.150;17.142;2023-02-28T23:30:23;26.65;;;11.75;;
12308;SDS011;6217;48.150;17.142;2023-02-28T23:34:29;17.35;;;10.07;;
12308;SDS011;6217;48.150;17.142;2023-02-28T23:38:36;24.65;;;10.98;;
12308;SDS011;6217;48.150;17.142;2023-02-28T23:42:46;18.17;;;10.65;;
12308;SDS011;6217;48.150;17.142;2023-02-28T23:46:52;21.92;;;11.38;;
12308;SDS011;6217;48.150;17.142;2023-02-28T23:51:02;20.80;;;12.70;;
12308;SDS011;6217;48.150;17.142;2023-02-28T23:55:14;24.88;;;13.50;;
12308;SDS011;6217;48.150;17.142;2023-02-28T23:59:19;24.58;;;14.35;;
